Time;durP1;ratioP1;P1;durP2;ratioP2;P2;SDS_P1;SDS_P2;PMS_P1;PMS_P2;Temp;Humidity;BMP_temperature;BMP_pressure;BME280_temperature;BME280_humidity;BME280_pressure;Samples;Min_cycle;Max_cycle;Signal;HPM_P1;HPM_P2
2022/05/29 00:01:52;;;;;;;3.78;1.13;;;;;;;;;;5010411;28;20431;-72
2022/05/29 00:04:19;;;;;;;3.63;1.25;;;;;;;;;;5010277;28;20034;-72
2022/05/29 00:06:47;;;;;;;6.18;1.20;;;;;;;;;;5010325;28;20038;-72
2022/05/29 00:09:17;;;;;;;3.95;1.08;;;;;;;;;;5010652;28;20025;-74
2022/05/29 00:11:42;;;;;;;2.17;1.20;;;;;;;;;;5010446;28;20026;-71
2022/05/29 00:14:08;;;;;;;2.10;0.98;;;;;;;;;;5010604;28;20359;-72
2022/05/29 00:16:34;;;;;;;2.50;1.00;;;;;;;;;;5010308;28;20022;-75
2022/05/29 00:18:59;;;;;;;2.67;1.10;;;;;;;;;;5010213;28;20034;-71
2022/05/29 00:21:26;;;;;;;3.92;1.10;;;;;;;;;;5009852;28;20042;-74
2022/05/29 00:23:51;;;;;;;4.25;1.20;;;;;;;;;;5010084;28;20032;-71
2022/05/29 00:26:18;;;;;;;3.67;1.20;;;;;;;;;;5010285;28;20022;-72
2022/05/29 00:28:43;;;;;;;2.13;1.10;;;;;;;;;;5010293;28;20445;-72
2022/05/29 00:31:10;;;;;;;2.88;1.17;;;;;;;;;;5010095;28;20034;-69
2022/05/29 00:33:35;;;;;;;5.07;1.15;;;;;;;;;;5009972;28;20034;-73
2022/05/29 00:36:01;;;;;;;2.58;1.20;;;;;;;;;;5009873;28;20306;-74
2022/05/29 00:38:27;;;;;;;3.42;1.20;;;;;;;;;;5010171;28;20449;-73
2022/05/29 00:40:59;;;;;;;2.03;1.10;;;;;;;;;;5010147;28;20030;-72
2022/05/29 00:43:24;;;;;;;4.68;1.10;;;;;;;;;;5010140;28;20113;-73
2022/05/29 00:45:59;;;;;;;3.97;1.20;;;;;;;;;;5010085;28;20109;-73
2022/05/29 00:48:25;;;;;;;3.90;1.25;;;;;;;;;;5010003;28;20021;-73
2022/05/29 00:50:54;;;;;;;3.20;1.25;;;;;;;;;;5009929;28;20034;-73
2022/05/29 00:53:23;;;;;;;2.83;1.23;;;;;;;;;;5009971;28;20026;-73
2022/05/29 00:55:53;;;;;;;4.93;1.30;;;;;;;;;;5010148;28;20022;-72
2022/05/29 00:58:21;;;;;;;2.80;1.00;;;;;;;;;;5010150;28;20037;-72
2022/05/29 01:00:48;;;;;;;6.13;1.20;;;;;;;;;;5010330;28;20034;-73
2022/05/29 01:03:13;;;;;;;3.00;1.08;;;;;;;;;;5010174;28;20038;-71
2022/05/29 01:05:39;;;;;;;5.45;1.17;;;;;;;;;;5009545;28;20034;-72
2022/05/29 01:08:18;;;;;;;4.03;1.58;;;;;;;;;;5009877;28;20359;-71
2022/05/29 01:10:50;;;;;;;2.38;1.30;;;;;;;;;;5009619;28;20532;-74
2022/05/29 01:13:37;;;;;;;2.63;1.20;;;;;;;;;;5010215;28;20038;-71
2022/05/29 01:16:14;;;;;;;2.58;1.10;;;;;;;;;;5010038;28;20506;-67
2022/05/29 01:18:47;;;;;;;2.20;1.17;;;;;;;;;;5013627;28;20061;-73
2022/05/29 01:21:34;;;;;;;2.90;1.38;;;;;;;;;;5013070;28;20058;-74
2022/05/29 01:24:15;;;;;;;4.78;1.40;;;;;;;;;;5012921;28;20440;-74
2022/05/29 01:27:18;;;;;;;2.80;1.10;;;;;;;;;;5013439;28;20072;-73
2022/05/29 01:29:52;;;;;;;2.78;1.30;;;;;;;;;;5013300;28;20025;-72
2022/05/29 01:32:35;;;;;;;4.22;1.30;;;;;;;;;;5012975;28;20040;-72
2022/05/29 01:35:10;;;;;;;4.55;1.20;;;;;;;;;;5013622;28;20026;-72
2022/05/29 01:38:01;;;;;;;3.50;1.25;;;;;;;;;;5013149;28;20021;-71
2022/05/29 01:40:39;;;;;;;1.73;0.98;;;;;;;;;;5001734;28;20113;-67
2022/05/29 01:43:23;;;;;;;4.55;1.38;;;;;;;;;;5013214;28;20021;-73
2022/05/29 01:46:05;;;;;;;4.22;1.15;;;;;;;;;;5013070;28;20501;-73
2022/05/29 01:48:45;;;;;;;3.42;1.15;;;;;;;;;;5013041;28;20501;-73
2022/05/29 01:51:55;;;;;;;5.47;1.25;;;;;;;;;;5012754;28;20022;-73
2022/05/29 01:54:32;;;;;;;4.30;1.30;;;;;;;;;;4990840;28;20082;-73
2022/05/29 01:57:13;;;;;;;6.93;1.20;;;;;;;;;;5011391;28;20049;-72
2022/05/29 01:59:46;;;;;;;4.90;1.27;;;;;;;;;;5011482;28;20375;-73
2022/05/29 02:02:17;;;;;;;2.65;1.05;;;;;;;;;;5012636;28;20133;-72
2022/05/29 02:04:48;;;;;;;2.80;1.35;;;;;;;;;;5012784;28;20088;-71
2022/05/29 02:10:09;;;;;;;4.55;1.20;;;;;;;;;;5017897;28;20033;-72
2022/05/29 02:12:37;;;;;;;2.78;0.98;;;;;;;;;;5018981;28;20022;-71
2022/05/29 02:15:11;;;;;;;2.25;1.00;;;;;;;;;;5018150;28;20072;-73
2022/05/29 02:17:44;;;;;;;4.28;1.20;;;;;;;;;;5018645;28;20385;-73
2022/05/29 02:20:20;;;;;;;3.72;1.33;;;;;;;;;;5016573;28;20022;-68
2022/05/29 02:22:49;;;;;;;2.50;1.10;;;;;;;;;;5016957;28;20026;-66
2022/05/29 02:25:19;;;;;;;4.22;1.17;;;;;;;;;;5019816;28;20036;-71
2022/05/29 02:28:03;;;;;;;3.97;1.20;;;;;;;;;;5017147;28;20022;-66
2022/05/29 02:30:48;;;;;;;3.25;1.27;;;;;;;;;;5017864;28;20049;-68
2022/05/29 02:33:19;;;;;;;3.15;1.20;;;;;;;;;;5016912;28;20029;-71
2022/05/29 02:36:29;;;;;;;2.88;1.13;;;;;;;;;;5012781;28;20033;-68
2022/05/29 02:39:06;;;;;;;3.40;1.02;;;;;;;;;;5012109;28;20402;-70
2022/05/29 02:42:05;;;;;;;6.78;1.30;;;;;;;;;;5011839;28;20026;-67
2022/05/29 02:44:37;;;;;;;3.05;1.15;;;;;;;;;;5012143;28;20061;-66
2022/05/29 02:47:14;;;;;;;3.03;1.20;;;;;;;;;;5011935;28;20068;-68
2022/05/29 02:49:49;;;;;;;2.90;0.90;;;;;;;;;;5011860;28;20029;-71
2022/05/29 02:52:16;;;;;;;3.45;1.40;;;;;;;;;;5011739;28;20119;-67
2022/05/29 02:54:42;;;;;;;6.75;1.55;;;;;;;;;;5011890;28;20029;-67
2022/05/29 02:57:08;;;;;;;2.30;1.08;;;;;;;;;;5011916;28;20084;-67
2022/05/29 02:59:42;;;;;;;3.15;1.10;;;;;;;;;;5011727;28;20092;-68
2022/05/29 03:02:18;;;;;;;5.18;1.30;;;;;;;;;;5011616;28;20022;-66
2022/05/29 03:04:55;;;;;;;2.60;1.17;;;;;;;;;;5011770;28;20048;-67
2022/05/29 03:07:26;;;;;;;3.00;1.10;;;;;;;;;;5011576;28;20021;-68
2022/05/29 03:10:07;;;;;;;3.78;1.10;;;;;;;;;;5011452;28;20057;-70
2022/05/29 03:12:47;;;;;;;4.57;1.30;;;;;;;;;;5011378;28;20072;-71
2022/05/29 03:15:28;;;;;;;4.60;1.40;;;;;;;;;;5011467;28;20057;-68
2022/05/29 03:18:06;;;;;;;4.10;1.30;;;;;;;;;;5011750;28;20285;-67
2022/05/29 03:20:58;;;;;;;4.95;1.10;;;;;;;;;;5010943;28;20573;-72
2022/05/29 03:23:47;;;;;;;3.22;1.42;;;;;;;;;;5010969;28;20030;-67
2022/05/29 03:27:02;;;;;;;4.57;1.35;;;;;;;;;;5010983;28;20030;-70
2022/05/29 03:29:47;;;;;;;4.07;1.30;;;;;;;;;;4994451;28;20041;-72
2022/05/29 03:32:14;;;;;;;5.15;1.73;;;;;;;;;;5010980;28;20022;-72
2022/05/29 03:34:39;;;;;;;2.55;1.30;;;;;;;;;;5011179;28;20393;-72
2022/05/29 03:37:06;;;;;;;3.38;1.10;;;;;;;;;;5010894;28;20022;-72
2022/05/29 03:39:32;;;;;;;4.88;1.30;;;;;;;;;;5010509;28;20417;-69
2022/05/29 03:41:58;;;;;;;3.33;1.30;;;;;;;;;;5010574;28;20050;-71
2022/05/29 03:44:24;;;;;;;3.75;1.35;;;;;;;;;;5010790;28;20077;-72
2022/05/29 03:46:50;;;;;;;3.40;1.20;;;;;;;;;;5010786;28;20026;-71
2022/05/29 03:49:20;;;;;;;3.17;1.17;;;;;;;;;;5010887;28;20029;-72
2022/05/29 03:51:46;;;;;;;5.78;1.17;;;;;;;;;;5010591;28;20037;-72
2022/05/29 03:54:12;;;;;;;4.88;1.20;;;;;;;;;;5010769;28;20026;-70
2022/05/29 03:56:38;;;;;;;1.58;1.10;;;;;;;;;;5010867;28;20028;-73
2022/05/29 03:59:04;;;;;;;4.47;1.23;;;;;;;;;;5010777;28;20030;-73
2022/05/29 04:01:31;;;;;;;3.28;1.17;;;;;;;;;;5010523;28;20029;-70
2022/05/29 04:03:57;;;;;;;2.80;1.08;;;;;;;;;;5010240;28;20029;-72
2022/05/29 04:06:24;;;;;;;2.92;1.00;;;;;;;;;;5010387;28;20022;-74
2022/05/29 04:14:21;;;;;;;3.88;1.20;;;;;;;;;;5010396;28;20125;-70
2022/05/29 04:16:47;;;;;;;4.60;1.27;;;;;;;;;;5010271;28;20057;-73
2022/05/29 04:19:12;;;;;;;2.90;1.30;;;;;;;;;;5010410;28;20061;-71
2022/05/29 04:21:38;;;;;;;3.42;1.20;;;;;;;;;;5010067;28;20457;-72
2022/05/29 04:24:04;;;;;;;3.97;1.30;;;;;;;;;;5010197;28;20467;-72
2022/05/29 04:26:30;;;;;;;3.67;1.20;;;;;;;;;;5008899;28;20029;-73
2022/05/29 04:28:55;;;;;;;4.40;1.10;;;;;;;;;;5010396;28;20452;-73
2022/05/29 04:31:21;;;;;;;3.30;1.10;;;;;;;;;;5010121;28;20470;-69
2022/05/29 04:33:46;;;;;;;3.45;1.10;;;;;;;;;;5009830;28;20120;-73
2022/05/29 04:36:11;;;;;;;3.38;1.05;;;;;;;;;;5010059;28;20504;-72
2022/05/29 04:38:37;;;;;;;3.17;1.48;;;;;;;;;;5010055;28;20482;-73
2022/05/29 04:41:07;;;;;;;5.57;0.98;;;;;;;;;;5010230;28;20038;-73
2022/05/29 04:43:34;;;;;;;2.80;1.25;;;;;;;;;;5009982;28;20528;-71
2022/05/29 04:45:59;;;;;;;4.07;1.10;;;;;;;;;;5010162;28;20026;-71
2022/05/29 04:48:25;;;;;;;3.33;1.10;;;;;;;;;;5008915;28;20033;-73
2022/05/29 04:51:02;;;;;;;2.65;1.10;;;;;;;;;;5008845;28;20069;-73
2022/05/29 04:53:28;;;;;;;4.70;1.20;;;;;;;;;;5013817;28;20049;-72
2022/05/29 04:55:55;;;;;;;5.28;1.30;;;;;;;;;;5012771;28;20041;-74
2022/05/29 04:58:22;;;;;;;3.55;1.10;;;;;;;;;;5014032;28;20026;-73
2022/05/29 05:00:47;;;;;;;4.78;1.13;;;;;;;;;;5014125;28;20032;-73
2022/05/29 05:03:13;;;;;;;4.57;1.30;;;;;;;;;;5013801;28;20033;-73
2022/05/29 05:05:39;;;;;;;7.13;1.50;;;;;;;;;;5013699;28;20044;-71
2022/05/29 05:08:05;;;;;;;4.65;1.20;;;;;;;;;;5013707;28;20029;-72
2022/05/29 05:10:33;;;;;;;5.60;1.27;;;;;;;;;;5013652;28;20029;-73
2022/05/29 05:12:59;;;;;;;4.32;1.33;;;;;;;;;;5013494;28;20018;-73
2022/05/29 05:15:24;;;;;;;6.78;1.27;;;;;;;;;;5013763;28;20493;-73
2022/05/29 05:17:50;;;;;;;4.75;1.48;;;;;;;;;;5013844;28;20101;-71
2022/05/29 05:20:15;;;;;;;7.30;1.48;;;;;;;;;;5013497;28;20529;-73
2022/05/29 05:22:41;;;;;;;5.22;1.25;;;;;;;;;;5013274;28;20022;-73
2022/05/29 05:25:08;;;;;;;3.90;1.20;;;;;;;;;;5013423;28;20033;-70
2022/05/29 05:27:34;;;;;;;2.72;1.30;;;;;;;;;;5013211;28;20037;-74
2022/05/29 05:29:59;;;;;;;3.50;1.30;;;;;;;;;;5013796;28;20087;-72
2022/05/29 05:32:24;;;;;;;2.95;1.20;;;;;;;;;;5013048;28;20030;-73
2022/05/29 05:34:50;;;;;;;3.65;1.23;;;;;;;;;;5013581;28;20047;-71
2022/05/29 05:37:16;;;;;;;3.90;1.38;;;;;;;;;;5013162;28;20026;-74
2022/05/29 05:39:41;;;;;;;5.07;1.20;;;;;;;;;;5013254;28;20022;-72
2022/05/29 05:42:08;;;;;;;5.40;1.13;;;;;;;;;;5013127;28;20032;-73
2022/05/29 05:44:33;;;;;;;3.85;1.30;;;;;;;;;;5013152;28;20057;-67
2022/05/29 05:46:59;;;;;;;4.40;1.40;;;;;;;;;;5013026;28;20500;-73
2022/05/29 05:49:24;;;;;;;5.88;1.27;;;;;;;;;;5013019;28;20159;-72
2022/05/29 05:51:50;;;;;;;4.60;1.30;;;;;;;;;;5013187;28;20057;-72
2022/05/29 05:54:16;;;;;;;3.63;1.40;;;;;;;;;;5012924;28;20378;-73
2022/05/29 05:56:47;;;;;;;3.95;1.40;;;;;;;;;;5013250;28;20030;-72
2022/05/29 05:59:14;;;;;;;2.65;1.40;;;;;;;;;;5013056;28;20034;-73
2022/05/29 06:01:40;;;;;;;7.10;1.30;;;;;;;;;;5012790;28;20045;-71
2022/05/29 06:04:05;;;;;;;3.63;1.45;;;;;;;;;;5011877;28;20531;-73
2022/05/29 06:06:31;;;;;;;2.58;1.15;;;;;;;;;;5012518;28;20029;-72
2022/05/29 06:08:57;;;;;;;4.43;1.35;;;;;;;;;;5012555;28;20022;-72
2022/05/29 06:11:24;;;;;;;3.15;1.40;;;;;;;;;;5013001;28;20072;-72
2022/05/29 06:13:49;;;;;;;2.25;1.15;;;;;;;;;;5012762;28;20494;-72
2022/05/29 06:16:15;;;;;;;8.00;1.65;;;;;;;;;;5012690;28;20249;-70
2022/05/29 06:18:40;;;;;;;4.03;1.10;;;;;;;;;;5012367;28;20034;-72
2022/05/29 06:21:06;;;;;;;4.45;1.30;;;;;;;;;;5011979;28;20073;-68
2022/05/29 06:23:33;;;;;;;7.43;1.75;;;;;;;;;;5012107;28;20030;-72
2022/05/29 06:26:08;;;;;;;6.95;1.33;;;;;;;;;;5012203;28;20486;-68
2022/05/29 06:28:37;;;;;;;3.70;1.30;;;;;;;;;;5012202;28;20026;-71
2022/05/29 06:31:07;;;;;;;3.22;1.10;;;;;;;;;;5012354;28;20107;-70
2022/05/29 06:33:33;;;;;;;4.30;1.00;;;;;;;;;;5012177;28;20072;-69
2022/05/29 06:36:10;;;;;;;3.15;1.13;;;;;;;;;;5011912;28;20026;-73
2022/05/29 06:38:36;;;;;;;5.47;1.23;;;;;;;;;;5012446;28;20365;-73
2022/05/29 06:41:08;;;;;;;4.68;1.27;;;;;;;;;;5012302;28;20492;-73
2022/05/29 06:43:33;;;;;;;6.32;1.30;;;;;;;;;;5011752;28;20037;-73
2022/05/29 06:46:00;;;;;;;5.05;1.30;;;;;;;;;;5010781;28;20064;-74
2022/05/29 06:48:26;;;;;;;4.13;1.30;;;;;;;;;;5011988;28;20056;-73
2022/05/29 06:50:51;;;;;;;3.88;1.30;;;;;;;;;;5011684;28;20061;-74
2022/05/29 06:53:17;;;;;;;5.57;1.40;;;;;;;;;;5011723;28;20100;-73
2022/05/29 06:55:51;;;;;;;3.38;1.38;;;;;;;;;;5011682;28;20041;-73
2022/05/29 06:58:17;;;;;;;9.23;1.50;;;;;;;;;;5011684;28;20056;-73
2022/05/29 07:08:54;;;;;;;4.32;1.33;;;;;;;;;;5011542;28;20045;-74
2022/05/29 07:11:23;;;;;;;3.72;1.15;;;;;;;;;;5011329;28;20018;-73
2022/05/29 07:13:48;;;;;;;4.80;1.38;;;;;;;;;;5010822;28;20032;-70
2022/05/29 07:16:15;;;;;;;3.65;1.30;;;;;;;;;;5010797;28;20368;-69
2022/05/29 07:18:40;;;;;;;4.50;1.30;;;;;;;;;;5011405;28;20104;-72
2022/05/29 07:21:06;;;;;;;5.65;1.30;;;;;;;;;;5010568;28;20069;-72
2022/05/29 07:23:33;;;;;;;5.82;1.48;;;;;;;;;;5010193;28;20100;-70
2022/05/29 07:25:58;;;;;;;3.33;1.20;;;;;;;;;;5010212;28;20112;-72
2022/05/29 07:28:25;;;;;;;5.68;1.30;;;;;;;;;;5010190;28;20485;-68
2022/05/29 07:30:52;;;;;;;4.15;1.27;;;;;;;;;;5010235;28;20109;-72
2022/05/29 07:33:17;;;;;;;4.72;1.40;;;;;;;;;;5009936;28;20734;-72
2022/05/29 07:35:43;;;;;;;4.20;1.55;;;;;;;;;;5008920;28;20280;-68
2022/05/29 07:38:10;;;;;;;6.80;1.30;;;;;;;;;;5010371;28;20062;-72
2022/05/29 07:40:35;;;;;;;3.90;1.17;;;;;;;;;;5010090;28;20033;-73
2022/05/29 07:43:19;;;;;;;4.82;1.38;;;;;;;;;;5010070;28;20029;-70
2022/05/29 07:45:59;;;;;;;4.22;1.30;;;;;;;;;;5009652;28;20052;-69
2022/05/29 07:48:27;;;;;;;5.75;1.40;;;;;;;;;;5009930;28;20026;-71
2022/05/29 07:50:53;;;;;;;5.38;1.20;;;;;;;;;;5009741;28;20064;-67
2022/05/29 07:53:19;;;;;;;5.80;1.40;;;;;;;;;;5009652;28;20026;-71
2022/05/29 07:55:45;;;;;;;4.43;1.33;;;;;;;;;;5010235;28;20028;-68
2022/05/29 07:58:12;;;;;;;3.70;1.27;;;;;;;;;;5009896;28;20084;-74
2022/05/29 08:00:38;;;;;;;7.18;1.40;;;;;;;;;;5009832;28;20014;-67
2022/05/29 08:03:04;;;;;;;7.00;1.40;;;;;;;;;;5010041;28;20044;-72
2022/05/29 08:05:33;;;;;;;5.20;1.40;;;;;;;;;;5009634;28;20105;-73
2022/05/29 08:07:59;;;;;;;3.73;1.20;;;;;;;;;;5009481;28;20554;-69
2022/05/29 08:10:26;;;;;;;6.15;1.20;;;;;;;;;;5009662;28;20474;-67
2022/05/29 08:12:52;;;;;;;5.13;1.33;;;;;;;;;;5009829;28;20371;-72
2022/05/29 08:15:18;;;;;;;2.55;1.10;;;;;;;;;;5009684;28;20037;-68
2022/05/29 08:17:44;;;;;;;6.90;1.35;;;;;;;;;;5009708;28;20025;-71
2022/05/29 08:20:12;;;;;;;4.75;1.33;;;;;;;;;;4969752;28;1147209;-68
2022/05/29 08:22:38;;;;;;;7.97;1.40;;;;;;;;;;5044655;28;20041;-73
2022/05/29 08:30:38;;;;;;;4.60;1.65;;;;;;;;;;5049978;28;20055;-67
2022/05/29 08:33:06;;;;;;;3.20;1.20;;;;;;;;;;5049797;28;20056;-73
2022/05/29 08:35:33;;;;;;;3.90;1.15;;;;;;;;;;5049499;28;20064;-68
2022/05/29 08:37:59;;;;;;;3.60;1.20;;;;;;;;;;5049733;28;20037;-72
2022/05/29 08:40:26;;;;;;;6.82;1.33;;;;;;;;;;5049664;28;20025;-72
2022/05/29 08:42:52;;;;;;;5.55;1.40;;;;;;;;;;5049652;28;20032;-72
2022/05/29 08:45:18;;;;;;;6.28;1.70;;;;;;;;;;5049657;28;20033;-74
2022/05/29 08:47:48;;;;;;;3.65;1.30;;;;;;;;;;5048299;28;20029;-72
2022/05/29 08:50:23;;;;;;;5.22;1.38;;;;;;;;;;5050011;28;20278;-72
2022/05/29 08:52:52;;;;;;;4.07;1.40;;;;;;;;;;5049469;28;20036;-72
2022/05/29 08:55:27;;;;;;;3.80;1.10;;;;;;;;;;5049443;28;20029;-72
2022/05/29 08:58:04;;;;;;;5.82;1.33;;;;;;;;;;5049362;28;20477;-72
2022/05/29 09:00:44;;;;;;;4.82;1.15;;;;;;;;;;5048202;28;20021;-73
2022/05/29 09:03:28;;;;;;;3.55;1.00;;;;;;;;;;5049541;28;20021;-73
2022/05/29 09:06:04;;;;;;;5.57;1.25;;;;;;;;;;5049881;28;20026;-73
2022/05/29 09:08:52;;;;;;;4.43;1.00;;;;;;;;;;5049461;28;20028;-73
2022/05/29 09:11:25;;;;;;;4.95;1.27;;;;;;;;;;5049382;28;20025;-70
2022/05/29 09:13:53;;;;;;;3.97;1.20;;;;;;;;;;5049232;28;20071;-72
2022/05/29 09:16:22;;;;;;;3.75;1.10;;;;;;;;;;5049369;28;20033;-72
2022/05/29 09:19:13;;;;;;;3.28;1.17;;;;;;;;;;5049522;28;20519;-72
2022/05/29 09:21:56;;;;;;;2.70;1.10;;;;;;;;;;5044642;28;20086;-68
2022/05/29 09:24:51;;;;;;;4.50;1.20;;;;;;;;;;5049289;28;20021;-73
2022/05/29 09:27:17;;;;;;;6.47;1.30;;;;;;;;;;5049516;28;20029;-72
2022/05/29 09:29:43;;;;;;;7.63;1.52;;;;;;;;;;5049265;28;20366;-72
2022/05/29 09:32:15;;;;;;;6.03;1.27;;;;;;;;;;5047968;28;20021;-72
2022/05/29 09:34:42;;;;;;;5.25;1.10;;;;;;;;;;5048939;28;20523;-67
2022/05/29 09:37:29;;;;;;;6.20;1.05;;;;;;;;;;5049267;28;20104;-71
2022/05/29 09:39:58;;;;;;;2.97;0.98;;;;;;;;;;5053169;28;20459;-66
2022/05/29 09:42:44;;;;;;;3.45;1.38;;;;;;;;;;5053063;28;20052;-67
2022/05/29 09:45:17;;;;;;;2.38;0.98;;;;;;;;;;5052410;28;20045;-67
2022/05/29 09:50:45;;;;;;;5.15;1.20;;;;;;;;;;5052448;28;20439;-67
2022/05/29 09:53:23;;;;;;;7.25;1.30;;;;;;;;;;5051238;28;20029;-67
2022/05/29 09:56:01;;;;;;;5.53;1.05;;;;;;;;;;5052677;28;20025;-67
2022/05/29 09:58:44;;;;;;;4.45;1.10;;;;;;;;;;5053004;28;20043;-68
2022/05/29 10:01:11;;;;;;;4.63;1.30;;;;;;;;;;5052678;28;20083;-70
2022/05/29 10:03:44;;;;;;;5.15;1.27;;;;;;;;;;5052484;28;20025;-70
2022/05/29 10:06:23;;;;;;;5.07;1.30;;;;;;;;;;5052083;28;20489;-70
2022/05/29 10:08:51;;;;;;;4.32;1.23;;;;;;;;;;5052266;28;20029;-67
2022/05/29 10:11:31;;;;;;;5.45;1.20;;;;;;;;;;5052303;28;20481;-67
2022/05/29 10:14:00;;;;;;;5.50;1.00;;;;;;;;;;5052665;28;20029;-71
2022/05/29 10:16:38;;;;;;;5.57;1.20;;;;;;;;;;5052150;28;20025;-71
2022/05/29 10:19:10;;;;;;;3.67;1.10;;;;;;;;;;5052141;28;20098;-67
2022/05/29 10:21:46;;;;;;;5.20;1.20;;;;;;;;;;5050487;28;20045;-72
2022/05/29 10:24:27;;;;;;;5.60;1.40;;;;;;;;;;5052415;28;20091;-70
2022/05/29 10:26:57;;;;;;;3.97;1.48;;;;;;;;;;5051734;28;20052;-66
2022/05/29 10:29:36;;;;;;;7.50;1.40;;;;;;;;;;5052099;28;20029;-73
2022/05/29 10:32:06;;;;;;;4.72;1.10;;;;;;;;;;5052530;28;20075;-68
2022/05/29 10:34:36;;;;;;;3.53;1.00;;;;;;;;;;5051941;28;20032;-70
2022/05/29 10:37:29;;;;;;;7.65;1.30;;;;;;;;;;5051582;28;20473;-67
2022/05/29 10:40:13;;;;;;;5.63;1.17;;;;;;;;;;5051901;28;20040;-67
2022/05/29 10:42:47;;;;;;;4.20;1.20;;;;;;;;;;5051645;28;20032;-72
2022/05/29 10:45:40;;;;;;;4.68;0.93;;;;;;;;;;5051196;28;20416;-73
2022/05/29 10:48:14;;;;;;;2.40;1.08;;;;;;;;;;5052016;28;20029;-73
2022/05/29 10:51:05;;;;;;;5.68;1.40;;;;;;;;;;5048826;28;20392;-68
2022/05/29 10:54:00;;;;;;;5.28;1.40;;;;;;;;;;5051465;28;20147;-65
2022/05/29 10:56:40;;;;;;;5.10;1.30;;;;;;;;;;5051801;28;20240;-67
2022/05/29 10:59:16;;;;;;;2.55;1.17;;;;;;;;;;5051463;28;20071;-71
2022/05/29 11:05:11;;;;;;;3.85;1.25;;;;;;;;;;5051278;28;20060;-68
2022/05/29 11:08:00;;;;;;;3.65;1.10;;;;;;;;;;5051427;28;20017;-71
2022/05/29 11:10:59;;;;;;;4.00;1.20;;;;;;;;;;5051341;28;20396;-67
2022/05/29 11:14:04;;;;;;;4.20;1.10;;;;;;;;;;5051142;28;20503;-67
2022/05/29 11:16:42;;;;;;;4.78;1.42;;;;;;;;;;5050710;28;20086;-67
2022/05/29 11:19:29;;;;;;;3.13;1.20;;;;;;;;;;5050978;28;20358;-72
2022/05/29 11:22:14;;;;;;;6.38;1.20;;;;;;;;;;5050651;28;20048;-67
2022/05/29 11:24:55;;;;;;;5.93;1.20;;;;;;;;;;5051462;28;20094;-65
2022/05/29 11:27:51;;;;;;;4.55;1.20;;;;;;;;;;5051016;28;20035;-67
2022/05/29 11:30:29;;;;;;;4.18;1.17;;;;;;;;;;5051015;28;20029;-67
2022/05/29 11:33:08;;;;;;;3.75;1.20;;;;;;;;;;5050946;28;20563;-68
2022/05/29 11:36:04;;;;;;;4.90;1.20;;;;;;;;;;5050350;28;20028;-71
2022/05/29 11:38:32;;;;;;;3.45;1.20;;;;;;;;;;5050648;28;20044;-67
2022/05/29 11:41:39;;;;;;;3.42;1.00;;;;;;;;;;5050796;28;20392;-66
2022/05/29 11:44:22;;;;;;;6.28;1.10;;;;;;;;;;5039332;28;20044;-71
2022/05/29 11:53:16;;;;;;;4.90;1.27;;;;;;;;;;5050091;28;20024;-70
2022/05/29 11:55:44;;;;;;;3.92;1.05;;;;;;;;;;5050306;28;20112;-71
2022/05/29 11:58:47;;;;;;;1.45;0.70;;;;;;;;;;5050710;28;20024;-72
2022/05/29 12:01:20;;;;;;;3.25;0.90;;;;;;;;;;5007797;28;20105;-72
2022/05/29 12:03:51;;;;;;;3.20;1.08;;;;;;;;;;5008046;28;20080;-69
2022/05/29 12:06:19;;;;;;;;;;;;;;;;;;5031059;28;20555;-66
2022/05/29 12:08:57;;;;;;;4.30;0.90;;;;;;;;;;5050166;28;19909;-72
2022/05/29 12:12:04;;;;;;;4.05;1.02;;;;;;;;;;5048580;28;20033;-74
2022/05/29 12:14:40;;;;;;;2.78;0.90;;;;;;;;;;5026938;28;20041;-73
2022/05/29 12:17:14;;;;;;;4.38;1.05;;;;;;;;;;5050017;28;20392;-73
2022/05/29 12:19:45;;;;;;;5.35;1.10;;;;;;;;;;5050594;28;20024;-74
2022/05/29 12:22:15;;;;;;;4.35;1.05;;;;;;;;;;5049874;28;20057;-74
2022/05/29 12:24:46;;;;;;;6.03;0.98;;;;;;;;;;5049875;28;20025;-71
2022/05/29 12:27:21;;;;;;;3.50;0.85;;;;;;;;;;5049476;28;20025;-73
2022/05/29 12:30:05;;;;;;;2.40;1.08;;;;;;;;;;5049970;28;20083;-74
2022/05/29 12:32:34;;;;;;;2.67;1.13;;;;;;;;;;5049688;28;20152;-71
2022/05/29 12:35:06;;;;;;;5.10;1.08;;;;;;;;;;5049874;28;20025;-71
2022/05/29 12:37:34;;;;;;;5.35;1.10;;;;;;;;;;5049709;28;20057;-72
2022/05/29 12:40:27;;;;;;;5.43;1.02;;;;;;;;;;5050080;28;20029;-72
2022/05/29 12:43:01;;;;;;;2.47;0.82;;;;;;;;;;5049841;28;20512;-70
2022/05/29 12:46:19;;;;;;;2.58;0.90;;;;;;;;;;5048127;28;20033;-74
2022/05/29 12:49:04;;;;;;;3.40;1.00;;;;;;;;;;5007203;28;20048;-72
2022/05/29 12:51:32;;;;;;;5.07;1.02;;;;;;;;;;5007254;28;20173;-72
2022/05/29 12:54:00;;;;;;;2.78;1.10;;;;;;;;;;5037135;28;20099;-72
2022/05/29 12:56:40;;;;;;;3.30;0.90;;;;;;;;;;5049582;28;20551;-72
2022/05/29 12:59:45;;;;;;;1.88;0.82;;;;;;;;;;5049745;28;20029;-69
2022/05/29 13:02:31;;;;;;;2.90;0.88;;;;;;;;;;5033263;28;20404;-73
2022/05/29 13:05:15;;;;;;;1.55;0.90;;;;;;;;;;5049512;28;20029;-71
2022/05/29 13:08:10;;;;;;;2.72;0.90;;;;;;;;;;5049528;28;20025;-71
2022/05/29 13:10:42;;;;;;;2.85;0.75;;;;;;;;;;5049469;28;20032;-71
2022/05/29 13:13:29;;;;;;;4.15;0.88;;;;;;;;;;5051150;28;20107;-74
2022/05/29 13:16:15;;;;;;;5.60;0.95;;;;;;;;;;5052774;28;20482;-72
2022/05/29 13:21:50;;;;;;;2.40;0.82;;;;;;;;;;5052845;28;20139;-73
2022/05/29 13:24:17;;;;;;;3.08;0.80;;;;;;;;;;5053229;28;20041;-72
2022/05/29 13:26:43;;;;;;;4.35;0.70;;;;;;;;;;5052856;28;20029;-72
2022/05/29 13:29:47;;;;;;;2.05;0.60;;;;;;;;;;5053286;28;20095;-74
2022/05/29 13:32:13;;;;;;;4.15;0.80;;;;;;;;;;5053505;28;20166;-74
2022/05/29 13:34:46;;;;;;;1.95;0.70;;;;;;;;;;5052964;28;20152;-68
2022/05/29 13:37:40;;;;;;;2.63;0.85;;;;;;;;;;5052843;28;20048;-73
2022/05/29 13:40:21;;;;;;;2.92;0.80;;;;;;;;;;5052971;28;20026;-68
2022/05/29 13:42:49;;;;;;;4.75;0.88;;;;;;;;;;5052964;28;20051;-67
2022/05/29 13:45:23;;;;;;;4.78;1.40;;;;;;;;;;5052644;28;20033;-69
2022/05/29 13:48:01;;;;;;;3.47;0.98;;;;;;;;;;5052527;28;20079;-71
2022/05/29 13:50:33;;;;;;;3.40;0.93;;;;;;;;;;5052647;28;20032;-72
2022/05/29 13:53:02;;;;;;;3.85;0.73;;;;;;;;;;5052682;28;20488;-72
2022/05/29 13:55:54;;;;;;;4.82;0.90;;;;;;;;;;5052493;28;20104;-72
2022/05/29 14:04:33;;;;;;;2.20;1.08;;;;;;;;;;5052908;28;20048;-67
2022/05/29 14:07:13;;;;;;;3.58;1.00;;;;;;;;;;5052248;28;20032;-67
2022/05/29 14:09:57;;;;;;;;;;;;;;;;;;5052878;28;20045;-72
2022/05/29 14:12:23;;;;;;;1.95;0.80;;;;;;;;;;5052353;28;20493;-73
2022/05/29 14:14:51;;;;;;;2.05;0.80;;;;;;;;;;5052305;28;20173;-66
2022/05/29 14:17:30;;;;;;;1.83;0.73;;;;;;;;;;5052403;28;20023;-73
2022/05/29 14:20:30;;;;;;;3.22;0.90;;;;;;;;;;5052271;28;20056;-73
2022/05/29 14:23:23;;;;;;;5.95;1.20;;;;;;;;;;5050847;28;20067;-68
2022/05/29 14:26:01;;;;;;;4.28;1.20;;;;;;;;;;5051839;28;20044;-67
2022/05/29 14:28:54;;;;;;;3.33;1.25;;;;;;;;;;5051892;28;20473;-69
2022/05/29 14:31:30;;;;;;;3.72;1.17;;;;;;;;;;5052031;28;20029;-68
2022/05/29 14:34:14;;;;;;;5.10;1.20;;;;;;;;;;5051797;28;20028;-72
2022/05/29 14:36:54;;;;;;;2.80;1.08;;;;;;;;;;5051959;28;20485;-74
2022/05/29 14:39:54;;;;;;;4.45;1.10;;;;;;;;;;5052132;28;20032;-70
2022/05/29 14:42:29;;;;;;;2.83;1.00;;;;;;;;;;5051923;28;20388;-74
2022/05/29 14:45:14;;;;;;;3.80;0.80;;;;;;;;;;5051519;28;20507;-73
2022/05/29 14:47:46;;;;;;;2.20;0.90;;;;;;;;;;5051230;28;20124;-72
2022/05/29 14:50:31;;;;;;;3.72;0.93;;;;;;;;;;5051620;28;20484;-73
2022/05/29 14:53:23;;;;;;;4.45;0.80;;;;;;;;;;5051246;28;20120;-74
2022/05/29 14:56:00;;;;;;;3.10;0.73;;;;;;;;;;5051285;28;20124;-73
2022/05/29 14:58:36;;;;;;;1.83;0.90;;;;;;;;;;5051344;28;20507;-68
2022/05/29 15:01:37;;;;;;;3.35;0.85;;;;;;;;;;5052109;28;20127;-72
2022/05/29 15:04:03;;;;;;;;;;;;;;;;;;5051818;28;20806;-73
2022/05/29 15:12:25;;;;;;;2.42;0.90;;;;;;;;;;5051205;28;20499;-72
2022/05/29 15:15:37;;;;;;;3.15;1.10;;;;;;;;;;5051623;28;20025;-72
2022/05/29 15:18:15;;;;;;;1.95;0.77;;;;;;;;;;5051126;28;20041;-72
2022/05/29 15:26:25;;;;;;;5.80;0.93;;;;;;;;;;5050990;28;20051;-73
2022/05/29 15:28:52;;;;;;;1.47;0.80;;;;;;;;;;5050738;28;20021;-73
2022/05/29 15:31:29;;;;;;;3.45;0.80;;;;;;;;;;5051149;28;20270;-73
2022/05/29 15:34:00;;;;;;;4.45;0.85;;;;;;;;;;5050818;28;20028;-72
2022/05/29 15:36:54;;;;;;;2.30;0.70;;;;;;;;;;5050033;28;20443;-73
2022/05/29 15:39:39;;;;;;;2.65;1.08;;;;;;;;;;5050777;28;20025;-72
2022/05/29 15:42:21;;;;;;;4.15;0.90;;;;;;;;;;5050475;28;20093;-71
2022/05/29 15:45:15;;;;;;;2.58;0.85;;;;;;;;;;5050493;28;20028;-71
2022/05/29 15:48:04;;;;;;;4.13;1.00;;;;;;;;;;5050619;28;20052;-72
2022/05/29 15:50:38;;;;;;;2.55;0.77;;;;;;;;;;5050735;28;20025;-73
2022/05/29 15:53:32;;;;;;;2.88;0.90;;;;;;;;;;5050599;28;20139;-71
2022/05/29 15:56:15;;;;;;;3.25;1.00;;;;;;;;;;5049085;28;20053;-71
2022/05/29 15:58:57;;;;;;;3.13;0.85;;;;;;;;;;5050294;28;20021;-72
2022/05/29 16:01:22;;;;;;;4.78;0.98;;;;;;;;;;5050234;28;20112;-72
2022/05/29 16:03:48;;;;;;;2.67;0.90;;;;;;;;;;5050344;28;20108;-72
2022/05/29 16:06:14;;;;;;;2.90;0.80;;;;;;;;;;5050538;28;20143;-74
2022/05/29 16:08:41;;;;;;;4.25;0.90;;;;;;;;;;5050007;28;20103;-72
2022/05/29 16:11:09;;;;;;;4.10;0.90;;;;;;;;;;5050016;28;20033;-71
2022/05/29 16:13:42;;;;;;;3.78;0.82;;;;;;;;;;5049905;28;20032;-71
2022/05/29 16:16:12;;;;;;;1.77;0.73;;;;;;;;;;5049896;28;20028;-72
2022/05/29 16:18:57;;;;;;;2.75;0.82;;;;;;;;;;5049915;28;20387;-72
2022/05/29 16:21:44;;;;;;;1.88;0.80;;;;;;;;;;5049712;28;20055;-72